Time;durP1;ratioP1;P1;durP2;ratioP2;P2;SDS_P1;SDS_P2;PMS_P1;PMS_P2;Temp;Humidity;BMP_temperature;BMP_pressure;BME280_temperature;BME280_humidity;BME280_pressure;Samples;Min_cycle;Max_cycle;Signal;HPM_P1;HPM_P2
2021/06/15 00:00:37;;;;;;;5.68;1.00;;;;;;;;;;4906466;29;20044;-62
2021/06/15 00:03:03;;;;;;;5.03;0.88;;;;;;;;;;4907963;29;20044;-63
2021/06/15 00:05:29;;;;;;;5.68;0.85;;;;;;;;;;4888542;29;20915;-63
2021/06/15 00:07:55;;;;;;;4.13;0.80;;;;;;;;;;4907449;29;20044;-63
2021/06/15 00:10:24;;;;;;;5.20;0.80;;;;;;;;;;4905710;29;20038;-63
2021/06/15 00:12:51;;;;;;;3.90;0.80;;;;;;;;;;4907382;29;20490;-62
2021/06/15 00:15:17;;;;;;;4.80;0.90;;;;;;;;;;4906986;29;20052;-63
2021/06/15 00:17:43;;;;;;;8.20;1.10;;;;;;;;;;4906620;29;20036;-63
2021/06/15 00:20:10;;;;;;;15.38;1.38;;;;;;;;;;4905192;29;20042;-61
2021/06/15 00:22:35;;;;;;;30.13;3.30;;;;;;;;;;4905453;29;20490;-63
2021/06/15 00:25:01;;;;;;;13.52;1.60;;;;;;;;;;4908196;29;20036;-63
2021/06/15 00:27:29;;;;;;;9.43;1.83;;;;;;;;;;4906707;29;20135;-63
2021/06/15 00:29:55;;;;;;;10.00;1.35;;;;;;;;;;4907242;29;20168;-63
2021/06/15 00:32:21;;;;;;;10.93;1.50;;;;;;;;;;4905350;29;20047;-62
2021/06/15 00:34:47;;;;;;;11.90;1.73;;;;;;;;;;4905873;29;20090;-61
2021/06/15 00:37:12;;;;;;;8.38;1.60;;;;;;;;;;4905673;29;20051;-61
2021/06/15 00:39:38;;;;;;;10.27;1.80;;;;;;;;;;4905805;29;20472;-60
2021/06/15 00:42:06;;;;;;;12.55;1.63;;;;;;;;;;4907228;29;20040;-62
2021/06/15 00:44:35;;;;;;;12.98;1.40;;;;;;;;;;4904780;29;20044;-62
2021/06/15 00:47:01;;;;;;;14.55;1.55;;;;;;;;;;4905514;29;20051;-63
2021/06/15 00:49:30;;;;;;;9.73;1.38;;;;;;;;;;4906017;29;20138;-62
2021/06/15 00:51:57;;;;;;;9.80;1.17;;;;;;;;;;4906032;29;20131;-62
2021/06/15 00:54:23;;;;;;;10.52;1.15;;;;;;;;;;4905244;29;20048;-62
2021/06/15 00:56:49;;;;;;;18.80;2.42;;;;;;;;;;4906171;29;20073;-63
2021/06/15 00:59:15;;;;;;;7.22;1.20;;;;;;;;;;4904926;29;20334;-62
2021/06/15 01:01:41;;;;;;;13.55;1.58;;;;;;;;;;4904886;29;20052;-63
2021/06/15 01:04:07;;;;;;;10.73;1.60;;;;;;;;;;4906994;29;20035;-62
2021/06/15 01:06:47;;;;;;;7.38;2.00;;;;;;;;;;4905220;29;20075;-62
2021/06/15 01:09:22;;;;;;;8.60;1.30;;;;;;;;;;4904967;29;20159;-61
2021/06/15 01:11:58;;;;;;;10.20;1.30;;;;;;;;;;4905040;29;20044;-62
2021/06/15 01:14:45;;;;;;;5.78;1.30;;;;;;;;;;4903720;29;20151;-62
2021/06/15 01:17:34;;;;;;;10.30;1.20;;;;;;;;;;4905160;29;20054;-62
2021/06/15 01:20:15;;;;;;;6.35;1.25;;;;;;;;;;4904020;29;20036;-63
2021/06/15 01:22:44;;;;;;;7.72;1.05;;;;;;;;;;4905926;29;20127;-63
2021/06/15 01:25:13;;;;;;;9.27;1.50;;;;;;;;;;4906128;29;20036;-64
2021/06/15 01:27:48;;;;;;;9.75;1.30;;;;;;;;;;4902485;29;21034;-64
2021/06/15 01:30:14;;;;;;;9.75;2.03;;;;;;;;;;4904848;29;20444;-63
2021/06/15 01:32:44;;;;;;;7.05;1.55;;;;;;;;;;4904558;29;20047;-64
2021/06/15 01:35:10;;;;;;;14.60;1.92;;;;;;;;;;4905822;29;20035;-64
2021/06/15 01:37:44;;;;;;;7.55;1.60;;;;;;;;;;4904015;29;20046;-63
2021/06/15 01:40:14;;;;;;;8.02;1.20;;;;;;;;;;4905144;29;20466;-63
2021/06/15 01:42:42;;;;;;;8.57;1.25;;;;;;;;;;4906748;29;20124;-63
2021/06/15 01:45:11;;;;;;;13.60;1.50;;;;;;;;;;4904576;29;20032;-62
2021/06/15 01:47:38;;;;;;;9.70;2.20;;;;;;;;;;4902560;29;20131;-62
2021/06/15 01:50:06;;;;;;;8.40;1.25;;;;;;;;;;4903334;29;20080;-63
2021/06/15 01:52:37;;;;;;;11.50;1.50;;;;;;;;;;4903460;29;20048;-63
2021/06/15 01:55:07;;;;;;;8.95;1.05;;;;;;;;;;4903965;29;20127;-61
2021/06/15 01:57:33;;;;;;;5.85;1.00;;;;;;;;;;4905536;29;20050;-61
2021/06/15 02:00:00;;;;;;;9.23;1.20;;;;;;;;;;4888297;29;22114;-62
2021/06/15 02:02:28;;;;;;;10.07;1.48;;;;;;;;;;4904632;29;20046;-62
2021/06/15 02:04:55;;;;;;;9.10;1.88;;;;;;;;;;4902810;29;20040;-63
2021/06/15 02:07:23;;;;;;;10.02;1.52;;;;;;;;;;4903771;29;20140;-63
2021/06/15 02:09:52;;;;;;;17.52;1.80;;;;;;;;;;4904775;29;20084;-62
2021/06/15 02:12:19;;;;;;;7.03;1.50;;;;;;;;;;4904550;29;20044;-61
2021/06/15 02:14:45;;;;;;;12.38;1.60;;;;;;;;;;4905781;29;20564;-62
2021/06/15 02:17:12;;;;;;;9.85;1.30;;;;;;;;;;4904838;29;20498;-62
2021/06/15 02:19:39;;;;;;;5.22;1.17;;;;;;;;;;4904101;29;20044;-63
2021/06/15 02:22:10;;;;;;;12.88;1.60;;;;;;;;;;4906217;29;20059;-62
2021/06/15 02:24:39;;;;;;;11.30;1.60;;;;;;;;;;4905666;29;20409;-62
2021/06/15 02:27:06;;;;;;;13.63;1.73;;;;;;;;;;4906340;29;20470;-62
2021/06/15 02:29:31;;;;;;;13.90;1.63;;;;;;;;;;4906263;29;20138;-61
2021/06/15 02:31:59;;;;;;;12.20;1.92;;;;;;;;;;4907622;29;20036;-61
2021/06/15 02:34:26;;;;;;;10.63;1.80;;;;;;;;;;4907441;29;20092;-62
2021/06/15 02:36:52;;;;;;;8.25;2.00;;;;;;;;;;4907900;29;20071;-62
2021/06/15 02:39:21;;;;;;;12.98;2.42;;;;;;;;;;4907621;29;20047;-63
2021/06/15 02:41:46;;;;;;;10.30;2.60;;;;;;;;;;4907591;29;20405;-62
2021/06/15 02:44:20;;;;;;;16.83;2.72;;;;;;;;;;4908663;29;20044;-63
2021/06/15 02:46:47;;;;;;;14.65;2.33;;;;;;;;;;4907954;29;20529;-64
2021/06/15 02:49:18;;;;;;;9.40;2.30;;;;;;;;;;4907268;29;20619;-63
2021/06/15 02:51:51;;;;;;;14.55;2.65;;;;;;;;;;4909107;29;20039;-62
2021/06/15 02:54:20;;;;;;;14.40;2.13;;;;;;;;;;4907909;29;20446;-62
2021/06/15 02:56:49;;;;;;;11.48;2.50;;;;;;;;;;4906703;29;20127;-62
2021/06/15 02:59:14;;;;;;;16.52;2.30;;;;;;;;;;4907383;29;20123;-61
2021/06/15 03:01:45;;;;;;;12.57;1.90;;;;;;;;;;4907785;29;20049;-61
2021/06/15 03:04:10;;;;;;;9.82;1.58;;;;;;;;;;4908782;29;20490;-61
2021/06/15 03:06:36;;;;;;;16.33;1.50;;;;;;;;;;4907895;29;20059;-62
2021/06/15 03:09:03;;;;;;;9.82;1.20;;;;;;;;;;4907304;29;20115;-61
2021/06/15 03:11:31;;;;;;;16.95;2.20;;;;;;;;;;4909016;29;20930;-62
2021/06/15 03:14:10;;;;;;;11.13;1.77;;;;;;;;;;4910149;29;20462;-63
2021/06/15 03:16:36;;;;;;;9.65;1.83;;;;;;;;;;4909522;29;20087;-63
2021/06/15 03:19:06;;;;;;;8.90;1.48;;;;;;;;;;4909342;29;20063;-63
2021/06/15 03:21:34;;;;;;;18.90;1.58;;;;;;;;;;4909795;29;20644;-63
2021/06/15 03:24:05;;;;;;;13.35;1.58;;;;;;;;;;4907934;29;20736;-63
2021/06/15 03:26:34;;;;;;;14.32;1.88;;;;;;;;;;4905554;29;20036;-62
2021/06/15 03:29:01;;;;;;;13.95;1.90;;;;;;;;;;4903604;29;20048;-63
2021/06/15 03:31:29;;;;;;;20.35;2.05;;;;;;;;;;4902681;29;20036;-63
2021/06/15 03:33:56;;;;;;;12.55;2.10;;;;;;;;;;4904769;29;21991;-62
2021/06/15 03:36:23;;;;;;;7.97;1.38;;;;;;;;;;4904798;29;20048;-64
2021/06/15 03:38:49;;;;;;;13.73;1.65;;;;;;;;;;4887830;29;20071;-60
2021/06/15 03:41:19;;;;;;;6.55;1.30;;;;;;;;;;4904208;29;20090;-59
2021/06/15 03:43:50;;;;;;;6.15;1.17;;;;;;;;;;4904818;29;20044;-60
2021/06/15 03:46:18;;;;;;;8.23;1.30;;;;;;;;;;4890020;29;20066;-60
2021/06/15 03:48:44;;;;;;;15.77;1.80;;;;;;;;;;4904367;29;20242;-60
2021/06/15 03:51:18;;;;;;;17.75;2.05;;;;;;;;;;4903212;29;20055;-61
2021/06/15 03:53:45;;;;;;;10.68;1.40;;;;;;;;;;4904055;29;20063;-61
2021/06/15 03:56:11;;;;;;;10.60;1.77;;;;;;;;;;4903660;29;20042;-59
2021/06/15 03:58:37;;;;;;;8.43;1.33;;;;;;;;;;4904977;29;20430;-59
2021/06/15 04:01:04;;;;;;;11.98;1.60;;;;;;;;;;4904639;29;20044;-59
2021/06/15 04:03:31;;;;;;;6.93;1.30;;;;;;;;;;4904246;29;20612;-59
2021/06/15 04:05:57;;;;;;;15.23;1.83;;;;;;;;;;4905357;29;20042;-59
2021/06/15 04:08:24;;;;;;;12.70;2.08;;;;;;;;;;4902610;29;20059;-60
2021/06/15 04:10:54;;;;;;;11.02;1.33;;;;;;;;;;4902480;29;20150;-57
2021/06/15 04:13:21;;;;;;;12.88;1.65;;;;;;;;;;4902988;29;20497;-59
2021/06/15 04:15:47;;;;;;;12.18;1.70;;;;;;;;;;4904560;29;20485;-60
2021/06/15 04:18:14;;;;;;;25.73;1.90;;;;;;;;;;4904911;29;20524;-59
2021/06/15 04:20:41;;;;;;;31.48;2.67;;;;;;;;;;4902997;29;20788;-60
2021/06/15 04:23:08;;;;;;;35.22;3.00;;;;;;;;;;4904313;29;20374;-60
2021/06/15 04:25:36;;;;;;;19.02;1.92;;;;;;;;;;4902423;29;20122;-60
2021/06/15 04:28:02;;;;;;;12.65;1.60;;;;;;;;;;4903202;29;20046;-60
2021/06/15 04:30:30;;;;;;;9.88;1.50;;;;;;;;;;4903179;29;20044;-59
2021/06/15 04:33:00;;;;;;;14.02;1.60;;;;;;;;;;4904168;29;20100;-59
2021/06/15 04:35:31;;;;;;;7.97;1.13;;;;;;;;;;4904096;29;20050;-59
2021/06/15 04:38:00;;;;;;;6.25;1.65;;;;;;;;;;4903289;29;20071;-60
2021/06/15 04:40:34;;;;;;;9.63;1.70;;;;;;;;;;4902924;29;20073;-60
2021/06/15 04:43:18;;;;;;;5.07;1.33;;;;;;;;;;4904056;29;20122;-60
2021/06/15 04:45:44;;;;;;;5.72;1.45;;;;;;;;;;4888348;29;20077;-59
2021/06/15 04:48:30;;;;;;;11.82;1.73;;;;;;;;;;4903679;29;20055;-59
2021/06/15 04:51:00;;;;;;;8.95;1.50;;;;;;;;;;4903036;29;20036;-60
2021/06/15 04:53:28;;;;;;;12.65;1.95;;;;;;;;;;4903123;29;20036;-61
2021/06/15 04:55:54;;;;;;;7.30;1.33;;;;;;;;;;4903854;29;20072;-59
2021/06/15 04:58:21;;;;;;;10.73;1.45;;;;;;;;;;4903405;29;20040;-60
2021/06/15 05:00:47;;;;;;;8.10;1.60;;;;;;;;;;4903621;29;20036;-60
2021/06/15 05:03:13;;;;;;;11.73;2.15;;;;;;;;;;4903721;29;20051;-61
2021/06/15 05:05:39;;;;;;;6.57;1.52;;;;;;;;;;4903806;29;20131;-60
2021/06/15 05:08:08;;;;;;;9.57;1.70;;;;;;;;;;4904176;29;20822;-59
2021/06/15 05:10:37;;;;;;;7.68;1.73;;;;;;;;;;4901847;29;20046;-58
2021/06/15 05:13:05;;;;;;;8.52;1.45;;;;;;;;;;4903492;29;20622;-60
2021/06/15 05:15:31;;;;;;;4.90;1.55;;;;;;;;;;4869092;29;20057;-60
2021/06/15 05:17:57;;;;;;;10.30;1.70;;;;;;;;;;4867054;29;20063;-60
2021/06/15 05:20:24;;;;;;;10.73;1.80;;;;;;;;;;4865584;29;20503;-59
2021/06/15 05:22:53;;;;;;;14.15;1.80;;;;;;;;;;4866416;29;20092;-59
2021/06/15 05:25:19;;;;;;;11.15;2.53;;;;;;;;;;4867287;29;20048;-59
2021/06/15 05:27:45;;;;;;;10.05;2.88;;;;;;;;;;4867136;29;20036;-59
2021/06/15 05:30:11;;;;;;;8.82;1.88;;;;;;;;;;4864667;29;20053;-57
2021/06/15 05:32:38;;;;;;;12.35;1.92;;;;;;;;;;4865558;29;20041;-58
2021/06/15 05:35:04;;;;;;;7.57;2.15;;;;;;;;;;4866072;29;20050;-58
2021/06/15 05:37:30;;;;;;;8.80;1.80;;;;;;;;;;4866101;29;20067;-60
2021/06/15 05:39:56;;;;;;;13.23;1.85;;;;;;;;;;4866304;29;20132;-58
2021/06/15 05:42:22;;;;;;;7.03;1.75;;;;;;;;;;4866453;29;20045;-59
2021/06/15 05:44:48;;;;;;;6.55;1.80;;;;;;;;;;4867395;29;20045;-60
2021/06/15 05:47:14;;;;;;;8.00;2.72;;;;;;;;;;4867055;29;20040;-60
2021/06/15 05:49:40;;;;;;;8.48;1.65;;;;;;;;;;4865026;29;20749;-59
2021/06/15 05:52:07;;;;;;;8.77;1.80;;;;;;;;;;4866907;29;20934;-59
2021/06/15 05:54:33;;;;;;;6.45;1.92;;;;;;;;;;4866513;29;20091;-58
2021/06/15 05:56:59;;;;;;;9.00;1.98;;;;;;;;;;4865063;29;20104;-60
2021/06/15 05:59:25;;;;;;;9.52;1.58;;;;;;;;;;4865916;29;20049;-58
2021/06/15 06:01:51;;;;;;;10.10;2.38;;;;;;;;;;4863665;29;20104;-60
2021/06/15 06:04:21;;;;;;;8.45;1.73;;;;;;;;;;4866670;29;20510;-58
2021/06/15 06:09:33;;;;;;;7.05;2.10;;;;;;;;;;4864658;29;20055;-59
2021/06/15 06:11:59;;;;;;;7.65;2.03;;;;;;;;;;4869356;29;20406;-58
2021/06/15 06:14:25;;;;;;;7.38;2.00;;;;;;;;;;4880219;29;20064;-59
2021/06/15 06:16:50;;;;;;;7.13;2.25;;;;;;;;;;4905035;29;20048;-59
2021/06/15 06:19:17;;;;;;;12.00;2.00;;;;;;;;;;4904204;29;20048;-59
2021/06/15 06:21:43;;;;;;;8.98;2.30;;;;;;;;;;4903391;29;20039;-58
2021/06/15 06:24:10;;;;;;;6.20;1.90;;;;;;;;;;4904643;29;20429;-59
2021/06/15 06:26:36;;;;;;;8.13;2.20;;;;;;;;;;4902597;29;20036;-58
2021/06/15 06:29:02;;;;;;;6.40;2.03;;;;;;;;;;4903475;29;20490;-60
2021/06/15 06:31:28;;;;;;;8.85;2.00;;;;;;;;;;4902701;29;20075;-58
2021/06/15 06:33:54;;;;;;;9.18;2.20;;;;;;;;;;4904012;29;20127;-59
2021/06/15 06:36:20;;;;;;;7.63;2.08;;;;;;;;;;4905016;29;20474;-59
2021/06/15 06:38:49;;;;;;;6.18;1.88;;;;;;;;;;4905355;29;20115;-59
2021/06/15 06:41:18;;;;;;;7.68;1.90;;;;;;;;;;4905671;29;20071;-59
2021/06/15 06:43:44;;;;;;;7.85;2.28;;;;;;;;;;4905281;29;20048;-58
2021/06/15 06:46:10;;;;;;;6.95;2.03;;;;;;;;;;4904727;29;20055;-59
2021/06/15 06:48:36;;;;;;;7.25;2.20;;;;;;;;;;4903391;29;20143;-58
2021/06/15 06:51:02;;;;;;;7.30;2.17;;;;;;;;;;4903468;29;20048;-59
2021/06/15 06:53:28;;;;;;;8.07;2.25;;;;;;;;;;4903670;29;20363;-59
2021/06/15 06:55:55;;;;;;;7.40;2.00;;;;;;;;;;4904521;29;20044;-59
2021/06/15 06:58:21;;;;;;;12.07;2.17;;;;;;;;;;4905212;29;20845;-59
2021/06/15 07:00:47;;;;;;;6.50;2.13;;;;;;;;;;4904572;29;20052;-59
2021/06/15 07:03:13;;;;;;;8.05;2.00;;;;;;;;;;4904618;29;20066;-59
2021/06/15 07:05:39;;;;;;;9.35;2.25;;;;;;;;;;4904272;29;20528;-59
2021/06/15 07:08:05;;;;;;;6.20;2.00;;;;;;;;;;4889326;29;20044;-58
2021/06/15 07:10:31;;;;;;;4.90;1.98;;;;;;;;;;4902061;29;20096;-59
2021/06/15 07:12:56;;;;;;;7.55;2.00;;;;;;;;;;4905636;29;20112;-58
2021/06/15 07:15:22;;;;;;;9.45;2.00;;;;;;;;;;4905839;29;20048;-60
2021/06/15 07:17:48;;;;;;;7.15;1.90;;;;;;;;;;4909240;29;20047;-60
2021/06/15 07:20:14;;;;;;;5.55;2.30;;;;;;;;;;4907884;29;20066;-59
2021/06/15 07:22:40;;;;;;;7.13;2.05;;;;;;;;;;4907599;29;20059;-60
2021/06/15 07:25:06;;;;;;;8.57;2.50;;;;;;;;;;4909191;29;20040;-60
2021/06/15 07:27:32;;;;;;;7.90;1.98;;;;;;;;;;4891620;29;20039;-61
2021/06/15 07:29:58;;;;;;;6.88;1.92;;;;;;;;;;4907113;29;20107;-58
2021/06/15 07:32:24;;;;;;;6.72;2.15;;;;;;;;;;4908153;29;20099;-60
2021/06/15 07:34:49;;;;;;;9.25;2.30;;;;;;;;;;4911611;29;20050;-59
2021/06/15 07:37:15;;;;;;;6.47;2.13;;;;;;;;;;4910758;29;20560;-58
2021/06/15 07:39:41;;;;;;;7.22;2.20;;;;;;;;;;4909338;29;20047;-59
2021/06/15 07:42:08;;;;;;;7.13;2.03;;;;;;;;;;4909555;29;20054;-58
2021/06/15 07:44:34;;;;;;;9.10;2.38;;;;;;;;;;4909281;29;20052;-59
2021/06/15 07:47:00;;;;;;;7.25;2.20;;;;;;;;;;4891538;29;20044;-59
2021/06/15 07:49:26;;;;;;;5.15;2.20;;;;;;;;;;4908492;29;20819;-58
2021/06/15 07:51:52;;;;;;;7.43;2.10;;;;;;;;;;4907924;29;20048;-58
2021/06/15 07:54:17;;;;;;;8.43;2.50;;;;;;;;;;4908953;29;20040;-59
2021/06/15 07:56:43;;;;;;;10.80;2.17;;;;;;;;;;4908425;29;20048;-59
2021/06/15 07:59:09;;;;;;;5.00;2.10;;;;;;;;;;4906838;29;20044;-59
2021/06/15 08:01:35;;;;;;;9.77;2.08;;;;;;;;;;4905980;29;20118;-60
2021/06/15 08:04:01;;;;;;;6.95;2.20;;;;;;;;;;4906867;29;20047;-60
2021/06/15 08:06:27;;;;;;;6.05;2.22;;;;;;;;;;4906878;29;20047;-60
2021/06/15 08:08:53;;;;;;;5.78;2.15;;;;;;;;;;4906583;29;20055;-60
2021/06/15 08:11:19;;;;;;;8.98;2.42;;;;;;;;;;4907353;29;20040;-59
2021/06/15 08:13:45;;;;;;;6.50;2.40;;;;;;;;;;4907517;29;20063;-60
2021/06/15 08:16:11;;;;;;;6.95;2.22;;;;;;;;;;4889033;29;20044;-60
2021/06/15 08:18:36;;;;;;;6.35;2.25;;;;;;;;;;4907330;29;20062;-60
2021/06/15 08:21:02;;;;;;;5.47;2.30;;;;;;;;;;4888021;29;20976;-61
2021/06/15 08:23:29;;;;;;;5.38;2.45;;;;;;;;;;4905506;29;20405;-59
2021/06/15 08:25:55;;;;;;;7.13;2.25;;;;;;;;;;4890470;29;20127;-60
2021/06/15 08:28:20;;;;;;;9.10;2.70;;;;;;;;;;4907884;29;20056;-60
2021/06/15 08:30:46;;;;;;;7.22;2.60;;;;;;;;;;4908203;29;20040;-59
2021/06/15 08:33:12;;;;;;;6.53;2.22;;;;;;;;;;4908938;29;20048;-59
2021/06/15 08:35:38;;;;;;;8.00;2.58;;;;;;;;;;4912646;29;20107;-60
2021/06/15 08:38:04;;;;;;;7.15;2.42;;;;;;;;;;4914197;29;20039;-60
2021/06/15 08:40:31;;;;;;;7.13;2.45;;;;;;;;;;4913282;29;20036;-60
2021/06/15 08:42:57;;;;;;;7.25;2.58;;;;;;;;;;4916584;29;20044;-60
2021/06/15 08:45:24;;;;;;;7.82;2.40;;;;;;;;;;4914245;29;20090;-59
2021/06/15 08:47:51;;;;;;;5.40;2.13;;;;;;;;;;4892611;29;20039;-59
2021/06/15 08:50:18;;;;;;;8.65;2.30;;;;;;;;;;4908849;29;20051;-58
2021/06/15 08:52:45;;;;;;;6.82;2.40;;;;;;;;;;4907074;29;20040;-60
2021/06/15 08:55:11;;;;;;;8.15;2.25;;;;;;;;;;4909020;29;20541;-59
2021/06/15 08:57:37;;;;;;;10.40;2.70;;;;;;;;;;4909207;29;20244;-59
2021/06/15 09:00:07;;;;;;;6.63;2.20;;;;;;;;;;4908524;29;20079;-59
2021/06/15 09:02:39;;;;;;;4.38;2.40;;;;;;;;;;4907341;29;20087;-60
2021/06/15 09:05:05;;;;;;;9.95;2.53;;;;;;;;;;4908710;29;20031;-60
2021/06/15 09:07:49;;;;;;;5.07;2.15;;;;;;;;;;4906630;29;20802;-60
2021/06/15 09:10:28;;;;;;;7.50;2.30;;;;;;;;;;4905699;29;20142;-59
2021/06/15 09:12:54;;;;;;;8.02;2.40;;;;;;;;;;4907491;29;20032;-59
2021/06/15 09:15:21;;;;;;;10.32;2.50;;;;;;;;;;4906327;29;20391;-58
2021/06/15 09:17:47;;;;;;;8.95;2.85;;;;;;;;;;4906183;29;20048;-60
2021/06/15 09:20:21;;;;;;;5.55;2.63;;;;;;;;;;4905332;29;20055;-59
2021/06/15 09:22:56;;;;;;;7.63;2.53;;;;;;;;;;4903638;29;20054;-58
2021/06/15 09:25:23;;;;;;;6.50;2.50;;;;;;;;;;4904125;29;20147;-58
2021/06/15 09:27:50;;;;;;;9.63;2.78;;;;;;;;;;4906324;29;20476;-59
2021/06/15 09:30:16;;;;;;;9.57;2.50;;;;;;;;;;4905018;29;20056;-58
2021/06/15 09:32:43;;;;;;;6.00;2.67;;;;;;;;;;4905833;29;20061;-58
2021/06/15 09:35:15;;;;;;;9.27;2.47;;;;;;;;;;4905859;29;20128;-58
2021/06/15 09:37:41;;;;;;;7.93;2.67;;;;;;;;;;4904845;29;20036;-59
2021/06/15 09:40:17;;;;;;;10.52;2.60;;;;;;;;;;4905936;29;20065;-58
2021/06/15 09:42:50;;;;;;;6.13;2.72;;;;;;;;;;4888248;29;20101;-59
2021/06/15 09:45:20;;;;;;;9.13;3.28;;;;;;;;;;4889807;29;20543;-59
2021/06/15 09:47:46;;;;;;;6.65;2.30;;;;;;;;;;4906038;29;20040;-59
2021/06/15 09:50:12;;;;;;;5.75;2.60;;;;;;;;;;4871937;29;20976;-59
2021/06/15 09:52:38;;;;;;;6.43;2.70;;;;;;;;;;4905356;29;20055;-59
2021/06/15 09:55:07;;;;;;;9.13;3.00;;;;;;;;;;4905289;29;20063;-59
2021/06/15 09:57:39;;;;;;;9.15;2.63;;;;;;;;;;4905744;29;20048;-59
2021/06/15 10:00:08;;;;;;;6.95;2.40;;;;;;;;;;4903993;29;20040;-58
2021/06/15 10:02:35;;;;;;;12.63;2.67;;;;;;;;;;4905046;29;20461;-61
2021/06/15 10:05:18;;;;;;;11.25;2.63;;;;;;;;;;4906437;29;20044;-58
2021/06/15 10:07:44;;;;;;;;;;;;;;;;;;4906163;29;20126;-58
2021/06/15 10:10:10;;;;;;;8.95;2.28;;;;;;;;;;4904424;29;19931;-59
2021/06/15 10:12:36;;;;;;;6.07;2.75;;;;;;;;;;4904938;29;20096;-58
2021/06/15 10:15:03;;;;;;;10.45;3.17;;;;;;;;;;4888123;29;20119;-58
2021/06/15 10:17:29;;;;;;;10.05;2.67;;;;;;;;;;4904556;29;20116;-58
2021/06/15 10:19:55;;;;;;;11.05;3.40;;;;;;;;;;4905469;29;20040;-58
2021/06/15 10:22:22;;;;;;;13.27;3.83;;;;;;;;;;4904577;29;20072;-59
2021/06/15 10:24:49;;;;;;;10.88;3.17;;;;;;;;;;4904625;29;20103;-59
2021/06/15 10:27:15;;;;;;;7.20;3.22;;;;;;;;;;4906395;29;20052;-58
2021/06/15 10:29:42;;;;;;;13.52;2.80;;;;;;;;;;4903764;29;20585;-59
2021/06/15 10:32:15;;;;;;;8.10;2.78;;;;;;;;;;4904597;29;20036;-58
2021/06/15 10:34:53;;;;;;;9.30;2.80;;;;;;;;;;4903921;29;20083;-58
2021/06/15 10:37:32;;;;;;;12.23;2.92;;;;;;;;;;4903723;29;20067;-58
2021/06/15 10:39:58;;;;;;;7.13;3.33;;;;;;;;;;4903923;29;20063;-58
2021/06/15 10:42:24;;;;;;;12.70;3.00;;;;;;;;;;4903676;29;20141;-56
2021/06/15 10:45:10;;;;;;;10.55;3.28;;;;;;;;;;4906972;29;20091;-58
2021/06/15 10:47:36;;;;;;;6.85;2.80;;;;;;;;;;4890615;29;20055;-59
2021/06/15 10:50:02;;;;;;;8.00;2.72;;;;;;;;;;4906299;29;20537;-59
2021/06/15 10:52:59;;;;;;;7.88;3.38;;;;;;;;;;4891828;29;20140;-59
2021/06/15 10:55:40;;;;;;;9.23;3.80;;;;;;;;;;4893255;29;20051;-58
2021/06/15 10:58:06;;;;;;;6.07;3.47;;;;;;;;;;4906569;29;21294;-56
2021/06/15 11:00:42;;;;;;;5.78;3.28;;;;;;;;;;4906403;29;20040;-58
2021/06/15 11:03:16;;;;;;;5.35;3.28;;;;;;;;;;4907317;29;20040;-57
2021/06/15 11:05:43;;;;;;;8.70;3.72;;;;;;;;;;4907643;29;20074;-59
2021/06/15 11:08:21;;;;;;;5.63;3.30;;;;;;;;;;4906126;29;20040;-58
2021/06/15 11:10:49;;;;;;;4.63;3.20;;;;;;;;;;4908318;29;20094;-58
2021/06/15 11:13:15;;;;;;;5.95;2.50;;;;;;;;;;4904816;29;20068;-57
2021/06/15 11:15:57;;;;;;;10.20;3.15;;;;;;;;;;4907684;29;20143;-58
2021/06/15 11:18:23;;;;;;;4.00;2.33;;;;;;;;;;4907311;29;20040;-57
2021/06/15 11:20:49;;;;;;;5.28;2.40;;;;;;;;;;4909132;29;20845;-58
2021/06/15 11:23:15;;;;;;;8.82;3.10;;;;;;;;;;4908594;29;20036;-58
2021/06/15 11:25:59;;;;;;;7.82;2.80;;;;;;;;;;4906925;29;20856;-58
2021/06/15 11:28:44;;;;;;;6.88;2.80;;;;;;;;;;4907050;29;20056;-57
2021/06/15 11:31:20;;;;;;;5.93;2.83;;;;;;;;;;4907107;29;20055;-57
2021/06/15 11:34:01;;;;;;;5.25;2.33;;;;;;;;;;4907183;29;20036;-58
2021/06/15 11:36:45;;;;;;;5.05;2.47;;;;;;;;;;4907001;29;20044;-58
2021/06/15 11:39:24;;;;;;;6.28;2.20;;;;;;;;;;4907323;29;20151;-58
2021/06/15 11:42:21;;;;;;;7.32;2.20;;;;;;;;;;4905730;29;20503;-58
2021/06/15 11:45:06;;;;;;;4.45;2.38;;;;;;;;;;4907707;29;20044;-58
2021/06/15 11:47:40;;;;;;;6.22;2.20;;;;;;;;;;4906772;29;20048;-59
2021/06/15 11:50:25;;;;;;;6.80;2.28;;;;;;;;;;4906927;29;20139;-59
2021/06/15 11:52:56;;;;;;;10.52;2.40;;;;;;;;;;4907543;29;20150;-59
2021/06/15 11:55:23;;;;;;;6.32;2.20;;;;;;;;;;4908265;29;20066;-59
2021/06/15 11:57:55;;;;;;;4.50;2.20;;;;;;;;;;4908406;29;20108;-58
2021/06/15 12:00:21;;;;;;;4.68;2.00;;;;;;;;;;4905989;29;20130;-59
2021/06/15 12:02:47;;;;;;;5.20;2.00;;;;;;;;;;4906938;29;20111;-59
2021/06/15 12:05:15;;;;;;;6.05;2.20;;;;;;;;;;4908560;29;20090;-58
2021/06/15 12:07:42;;;;;;;8.07;2.20;;;;;;;;;;4907407;29;20044;-58
2021/06/15 12:10:12;;;;;;;6.68;2.20;;;;;;;;;;4906379;29;20052;-58
2021/06/15 12:12:54;;;;;;;6.15;1.90;;;;;;;;;;4904781;29;20043;-58
2021/06/15 12:15:38;;;;;;;4.60;2.17;;;;;;;;;;4906766;29;20058;-59
2021/06/15 12:18:05;;;;;;;7.38;2.08;;;;;;;;;;4908020;29;20050;-59
2021/06/15 12:20:33;;;;;;;8.85;2.00;;;;;;;;;;4906289;29;20099;-59
2021/06/15 12:23:19;;;;;;;4.07;1.70;;;;;;;;;;4906088;29;20052;-60
2021/06/15 12:25:45;;;;;;;6.25;2.40;;;;;;;;;;4905628;29;20054;-60
2021/06/15 12:28:15;;;;;;;5.63;1.83;;;;;;;;;;4906351;29;20044;-58
2021/06/15 12:30:41;;;;;;;4.70;1.63;;;;;;;;;;4906372;29;20040;-58
2021/06/15 12:33:08;;;;;;;4.13;1.52;;;;;;;;;;4906130;29;20780;-58
2021/06/15 12:35:35;;;;;;;3.20;1.33;;;;;;;;;;4906331;29;20039;-57
2021/06/15 12:38:10;;;;;;;4.03;1.63;;;;;;;;;;4906905;29;20164;-58
2021/06/15 12:40:37;;;;;;;4.47;1.55;;;;;;;;;;4904615;29;20053;-59
2021/06/15 12:43:03;;;;;;;4.78;1.70;;;;;;;;;;4906499;29;20052;-58
2021/06/15 12:45:35;;;;;;;7.25;1.70;;;;;;;;;;4905526;29;20051;-58
2021/06/15 12:48:16;;;;;;;6.10;1.85;;;;;;;;;;4905156;29;20044;-59
2021/06/15 12:50:42;;;;;;;6.47;1.58;;;;;;;;;;4903730;29;20060;-59
2021/06/15 12:53:08;;;;;;;7.25;1.50;;;;;;;;;;4905770;29;21773;-59
2021/06/15 12:55:40;;;;;;;4.07;1.55;;;;;;;;;;4905982;29;20071;-59
2021/06/15 12:58:07;;;;;;;4.28;1.73;;;;;;;;;;4905250;29;20048;-58
2021/06/15 13:00:39;;;;;;;3.22;1.55;;;;;;;;;;4905140;29;20051;-57
2021/06/15 13:03:09;;;;;;;3.53;1.58;;;;;;;;;;4905437;29;20063;-59
2021/06/15 13:05:34;;;;;;;5.05;1.65;;;;;;;;;;4903116;29;20091;-58
2021/06/15 13:08:01;;;;;;;5.68;1.58;;;;;;;;;;4905691;29;20039;-59
2021/06/15 13:10:27;;;;;;;4.45;1.55;;;;;;;;;;4904299;29;20052;-59
2021/06/15 13:12:54;;;;;;;2.92;1.10;;;;;;;;;;4905000;29;20054;-60
2021/06/15 13:15:21;;;;;;;3.55;1.50;;;;;;;;;;4905180;29;20511;-59
2021/06/15 13:17:57;;;;;;;5.97;1.40;;;;;;;;;;4887393;29;20040;-58
2021/06/15 13:20:23;;;;;;;6.97;1.20;;;;;;;;;;4904622;29;20044;-58
2021/06/15 13:22:49;;;;;;;5.90;1.30;;;;;;;;;;4905955;29;20729;-58
2021/06/15 13:25:27;;;;;;;2.97;1.10;;;;;;;;;;4905255;29;20051;-58
2021/06/15 13:28:03;;;;;;;5.18;1.55;;;;;;;;;;4903505;29;20056;-57
2021/06/15 13:30:31;;;;;;;6.65;1.20;;;;;;;;;;4904922;29;20056;-57
2021/06/15 13:33:09;;;;;;;9.23;1.50;;;;;;;;;;4906203;29;20048;-59
2021/06/15 13:35:38;;;;;;;10.93;1.30;;;;;;;;;;4904421;29;20095;-59
2021/06/15 13:38:05;;;;;;;8.98;1.30;;;;;;;;;;4904140;29;20192;-57
2021/06/15 13:40:31;;;;;;;8.40;1.40;;;;;;;;;;4904593;29;20485;-59
2021/06/15 13:42:57;;;;;;;6.88;1.05;;;;;;;;;;4905166;29;20107;-58
2021/06/15 13:45:28;;;;;;;11.10;1.83;;;;;;;;;;4905876;29;21803;-58
2021/06/15 13:47:53;;;;;;;4.75;1.35;;;;;;;;;;4905236;29;20775;-59
2021/06/15 13:50:20;;;;;;;10.85;1.80;;;;;;;;;;4903760;29;20071;-59
2021/06/15 13:52:47;;;;;;;5.05;1.20;;;;;;;;;;4904128;29;20232;-59
2021/06/15 13:55:13;;;;;;;5.43;1.30;;;;;;;;;;4904421;29;20359;-57
2021/06/15 13:57:39;;;;;;;3.30;1.27;;;;;;;;;;4905093;29;20055;-58
2021/06/15 14:00:08;;;;;;;6.03;1.50;;;;;;;;;;4885612;29;20579;-57
2021/06/15 14:02:34;;;;;;;5.65;1.45;;;;;;;;;;4905123;29;20054;-56
2021/06/15 14:05:00;;;;;;;13.25;1.40;;;;;;;;;;4905574;29;20052;-59
2021/06/15 14:07:26;;;;;;;6.95;1.30;;;;;;;;;;4904813;29;20067;-58
2021/06/15 14:09:51;;;;;;;11.27;1.58;;;;;;;;;;4904428;29;20046;-58
2021/06/15 14:12:17;;;;;;;4.63;1.45;;;;;;;;;;4905022;29;20059;-56
2021/06/15 14:14:43;;;;;;;4.32;1.27;;;;;;;;;;4904792;29;20064;-58
2021/06/15 14:17:10;;;;;;;6.00;1.50;;;;;;;;;;4905091;29;20119;-58
2021/06/15 14:19:36;;;;;;;11.60;2.42;;;;;;;;;;4906450;29;20131;-60
2021/06/15 14:22:02;;;;;;;9.07;1.60;;;;;;;;;;4906074;29;20040;-58
2021/06/15 14:24:28;;;;;;;6.90;1.60;;;;;;;;;;4909658;29;20623;-57
2021/06/15 14:26:55;;;;;;;6.47;1.50;;;;;;;;;;4908618;29;20033;-57
2021/06/15 14:29:21;;;;;;;10.05;1.50;;;;;;;;;;4909814;29;20071;-57
2021/06/15 14:31:46;;;;;;;6.25;1.75;;;;;;;;;;4910235;29;20040;-58
2021/06/15 14:34:12;;;;;;;14.30;1.80;;;;;;;;;;4892980;29;20046;-59
2021/06/15 14:36:38;;;;;;;8.55;1.25;;;;;;;;;;4909769;29;20079;-57
2021/06/15 14:39:04;;;;;;;3.78;1.30;;;;;;;;;;4909445;29;20123;-58
2021/06/15 14:41:30;;;;;;;6.80;1.25;;;;;;;;;;4908897;29;20102;-59
2021/06/15 14:43:56;;;;;;;6.30;1.38;;;;;;;;;;4909523;29;20123;-58
2021/06/15 14:46:21;;;;;;;5.07;1.30;;;;;;;;;;4908334;29;20095;-59
2021/06/15 14:48:47;;;;;;;6.10;1.52;;;;;;;;;;4909264;29;20505;-57
2021/06/15 14:51:13;;;;;;;6.22;1.65;;;;;;;;;;4909130;29;20048;-59